Time;durP1;ratioP1;P1;durP2;ratioP2;P2;SDS_P1;SDS_P2;PMS_P1;PMS_P2;Temp;Humidity;BMP_temperature;BMP_pressure;BME280_temperature;BME280_humidity;BME280_pressure;Samples;Min_cycle;Max_cycle;Signal;HPM_P1;HPM_P2
2023/07/25 00:01:39;;;;;;;7.57;3.40;;;;;;;;;;6307791;28;20057;-85
2023/07/25 00:04:41;;;;;;;6.28;3.88;;;;;;;;;;6304815;28;20355;-85
2023/07/25 00:07:42;;;;;;;6.40;4.13;;;;;;;;;;6307664;28;20232;-85
2023/07/25 00:10:44;;;;;;;6.75;3.80;;;;;;;;;;6306593;28;20110;-85
2023/07/25 00:13:47;;;;;;;7.40;4.00;;;;;;;;;;6305829;28;20461;-85
2023/07/25 00:16:48;;;;;;;8.38;3.35;;;;;;;;;;6310089;28;20063;-85
2023/07/25 00:19:50;;;;;;;6.80;3.67;;;;;;;;;;6312088;28;20060;-85
2023/07/25 00:22:51;;;;;;;6.03;3.70;;;;;;;;;;6302629;28;20062;-86
2023/07/25 00:25:52;;;;;;;8.93;4.13;;;;;;;;;;6312037;28;20121;-85
2023/07/25 00:28:55;;;;;;;7.43;4.05;;;;;;;;;;6304752;28;20051;-85
2023/07/25 00:31:57;;;;;;;8.68;4.72;;;;;;;;;;6307573;28;20044;-84
2023/07/25 00:34:58;;;;;;;8.55;4.53;;;;;;;;;;6311011;28;20043;-85
2023/07/25 00:38:02;;;;;;;8.82;4.53;;;;;;;;;;6306691;28;20079;-84
2023/07/25 00:41:03;;;;;;;7.97;4.38;;;;;;;;;;6308303;28;20275;-85
2023/07/25 00:44:06;;;;;;;7.38;4.00;;;;;;;;;;6307352;28;20055;-85
2023/07/25 00:47:08;;;;;;;7.97;3.90;;;;;;;;;;6307284;28;20157;-83
2023/07/25 00:50:10;;;;;;;8.52;4.32;;;;;;;;;;6301216;28;20105;-84
2023/07/25 00:53:13;;;;;;;8.70;3.72;;;;;;;;;;6309997;28;20052;-84
2023/07/25 00:56:15;;;;;;;8.18;4.60;;;;;;;;;;6309803;28;20056;-85
2023/07/25 00:59:17;;;;;;;7.97;4.65;;;;;;;;;;6308928;28;20340;-84
2023/07/25 01:02:19;;;;;;;7.53;4.75;;;;;;;;;;6307598;28;20052;-84
2023/07/25 01:05:21;;;;;;;10.23;5.18;;;;;;;;;;6306544;28;20115;-83
2023/07/25 01:08:22;;;;;;;9.05;5.10;;;;;;;;;;6308795;28;20151;-86
2023/07/25 01:11:24;;;;;;;9.40;4.88;;;;;;;;;;6301763;28;20217;-86
2023/07/25 01:14:27;;;;;;;7.85;5.28;;;;;;;;;;6304725;28;20362;-86
2023/07/25 01:17:29;;;;;;;8.85;5.32;;;;;;;;;;6303682;28;20074;-86
2023/07/25 01:20:30;;;;;;;9.88;5.07;;;;;;;;;;6307573;28;20055;-86
2023/07/25 01:23:32;;;;;;;9.65;5.07;;;;;;;;;;6311197;28;20059;-86
2023/07/25 01:26:35;;;;;;;9.90;5.72;;;;;;;;;;6303692;28;20332;-84
2023/07/25 01:29:36;;;;;;;9.52;5.22;;;;;;;;;;6303621;28;20056;-85
2023/07/25 01:32:38;;;;;;;10.43;5.63;;;;;;;;;;6311535;28;20040;-87
2023/07/25 01:35:39;;;;;;;8.80;5.63;;;;;;;;;;6307247;28;20063;-84
2023/07/25 01:38:41;;;;;;;10.23;5.65;;;;;;;;;;6306012;28;20048;-84
2023/07/25 01:41:44;;;;;;;8.45;4.75;;;;;;;;;;6305025;28;20066;-84
2023/07/25 01:44:46;;;;;;;8.10;5.32;;;;;;;;;;6307653;28;20048;-84
2023/07/25 01:47:47;;;;;;;8.98;4.95;;;;;;;;;;6311450;28;20340;-85
2023/07/25 01:50:49;;;;;;;10.25;5.43;;;;;;;;;;6312269;28;20054;-85
2023/07/25 01:53:53;;;;;;;10.75;5.10;;;;;;;;;;6316898;28;20056;-84
2023/07/25 01:56:56;;;;;;;10.73;6.47;;;;;;;;;;6312648;28;20062;-86
2023/07/25 01:59:58;;;;;;;13.15;7.07;;;;;;;;;;6313914;28;20055;-88
2023/07/25 02:02:59;;;;;;;12.35;7.00;;;;;;;;;;6312124;28;20066;-88
2023/07/25 02:06:01;;;;;;;16.25;6.30;;;;;;;;;;6314893;28;20048;-86
2023/07/25 02:09:02;;;;;;;;;;;;;;;;;;6317827;28;20332;-76
2023/07/25 02:12:03;;;;;;;;;;;;;;;;;;6321798;28;19932;-76
2023/07/25 02:15:05;;;;;;;;;;;;;;;;;;6328697;28;19916;-77
2023/07/25 02:18:06;;;;;;;;;;;;;;;;;;6327092;28;20196;-75
2023/07/25 02:24:17;;;;;;;;;;;;;;;;;;7156039;22;20424;-72
2023/07/25 02:27:18;;;;;;;;;;;;;;;;;;6250284;23;19925;-78
2023/07/25 02:30:20;;;;;;;;;;;;;;;;;;6251546;28;19917;-71
2023/07/25 02:33:21;;;;;;;;;;;;;;;;;;6251751;28;20159;-73
2023/07/25 02:36:22;;;;;;;;;;;;;;;;;;6248437;28;19925;-71
2023/07/25 02:39:23;;;;;;;;;;;;;;;;;;6252042;28;19921;-71
2023/07/25 02:42:24;;;;;;;;;;;;;;;;;;6249400;28;20232;-72
2023/07/25 02:45:26;;;;;;;;;;;;;;;;;;6248134;28;19971;-74
2023/07/25 02:48:27;;;;;;;;;;;;;;;;;;6249525;28;20204;-71
2023/07/25 02:51:28;;;;;;;;;;;;;;;;;;6253660;28;19925;-71
2023/07/25 02:54:29;;;;;;;;;;;;;;;;;;6251472;28;19924;-72
2023/07/25 02:57:30;;;;;;;;;;;;;;;;;;6251227;28;20030;-72
2023/07/25 03:00:32;;;;;;;;;;;;;;;;;;6255446;28;20527;-73
2023/07/25 03:03:33;;;;;;;;;;;;;;;;;;6249636;28;19925;-81
2023/07/25 03:06:34;;;;;;;;;;;;;;;;;;6247014;28;20131;-76
2023/07/25 03:09:37;;;;;;;;;;;;;;;;;;6251752;28;19917;-79
2023/07/25 03:12:38;;;;;;;;;;;;;;;;;;6245942;28;19952;-80
2023/07/25 03:15:39;;;;;;;;;;;;;;;;;;6244311;28;20241;-76
2023/07/25 03:18:40;;;;;;;;;;;;;;;;;;6241355;28;20206;-78
2023/07/25 03:21:42;;;;;;;;;;;;;;;;;;6244714;28;20222;-86
2023/07/25 03:24:43;;;;;;;;;;;;;;;;;;6245389;28;19925;-77
2023/07/25 03:27:44;;;;;;;;;;;;;;;;;;6243863;28;19917;-86
2023/07/25 03:30:45;;;;;;;;;;;;;;;;;;6244889;28;19948;-78
2023/07/25 03:33:46;;;;;;;;;;;;;;;;;;6243185;28;20204;-79
2023/07/25 03:36:48;;;;;;;;;;;;;;;;;;6240803;28;19955;-79
2023/07/25 03:39:49;;;;;;;;;;;;;;;;;;6238503;28;19916;-78
2023/07/25 03:42:50;;;;;;;;;;;;;;;;;;6240587;28;20042;-85
2023/07/25 03:45:51;;;;;;;;;;;;;;;;;;6241422;28;19925;-84
2023/07/25 03:48:53;;;;;;;;;;;;;;;;;;6240452;28;19929;-76
2023/07/25 03:51:54;;;;;;;;;;;;;;;;;;6245192;28;19917;-80
2023/07/25 03:54:55;;;;;;;;;;;;;;;;;;6244258;28;19929;-77
2023/07/25 03:57:56;;;;;;;;;;;;;;;;;;6246365;28;19924;-78
2023/07/25 04:00:58;;;;;;;;;;;;;;;;;;6247992;28;20006;-75
2023/07/25 04:03:59;;;;;;;;;;;;;;;;;;6244435;28;19924;-76
2023/07/25 04:07:00;;;;;;;;;;;;;;;;;;6245217;28;19917;-76
2023/07/25 04:10:01;;;;;;;;;;;;;;;;;;6244798;28;19980;-75
2023/07/25 04:13:02;;;;;;;;;;;;;;;;;;6217997;28;19925;-78
2023/07/25 04:16:04;;;;;;;;;;;;;;;;;;6243698;28;20262;-75
2023/07/25 04:19:05;;;;;;;;;;;;;;;;;;6245298;28;19924;-75
2023/07/25 04:22:06;;;;;;;;;;;;;;;;;;6242627;28;19924;-75
2023/07/25 04:25:07;;;;;;;;;;;;;;;;;;6242734;28;19933;-75
2023/07/25 04:28:09;;;;;;;;;;;;;;;;;;6243485;28;19917;-79
2023/07/25 04:31:10;;;;;;;;;;;;;;;;;;6218906;28;19921;-75
2023/07/25 04:34:11;;;;;;;;;;;;;;;;;;6237772;28;20159;-75
2023/07/25 04:37:12;;;;;;;;;;;;;;;;;;6220893;28;19968;-83
2023/07/25 04:40:15;;;;;;;4.72;2.90;;;;;;;;;;6218207;28;19932;-73
2023/07/25 04:43:17;;;;;;;5.95;3.03;;;;;;;;;;6222177;28;20124;-79
2023/07/25 04:46:18;;;;;;;4.00;2.83;;;;;;;;;;6218505;28;20533;-79
2023/07/25 04:49:19;;;;;;;4.70;3.17;;;;;;;;;;6218596;28;20057;-74
2023/07/25 04:52:21;;;;;;;5.20;3.50;;;;;;;;;;6216616;28;20057;-77
2023/07/25 04:55:24;;;;;;;5.70;3.45;;;;;;;;;;6221538;28;20054;-75
2023/07/25 04:58:25;;;;;;;5.18;3.85;;;;;;;;;;6217935;28;20053;-75
2023/07/25 05:01:26;;;;;;;5.38;3.78;;;;;;;;;;6220329;28;20281;-83
2023/07/25 05:04:28;;;;;;;5.38;3.72;;;;;;;;;;6222579;28;20105;-80
2023/07/25 05:07:29;;;;;;;6.53;4.22;;;;;;;;;;6223127;28;20049;-79
2023/07/25 05:10:34;;;;;;;9.50;4.90;;;;;;;;;;6217995;28;20384;-76
2023/07/25 05:13:36;;;;;;;6.82;4.60;;;;;;;;;;6219223;28;20046;-81
2023/07/25 05:16:37;;;;;;;9.27;5.07;;;;;;;;;;6221949;28;20121;-85
2023/07/25 05:19:40;;;;;;;8.48;5.15;;;;;;;;;;6223931;28;20054;-82
2023/07/25 05:22:42;;;;;;;9.25;5.43;;;;;;;;;;6227304;28;20065;-85
2023/07/25 05:25:45;;;;;;;10.30;5.20;;;;;;;;;;6224898;28;20337;-84
2023/07/25 05:28:47;;;;;;;9.68;5.00;;;;;;;;;;6224597;28;20062;-84
2023/07/25 05:31:48;;;;;;;13.43;5.63;;;;;;;;;;6224689;28;20148;-82
2023/07/25 05:34:50;;;;;;;10.30;6.18;;;;;;;;;;6225915;28;20054;-82
2023/07/25 05:37:51;;;;;;;9.00;5.53;;;;;;;;;;6224323;28;20056;-80
2023/07/25 05:40:55;;;;;;;9.68;5.28;;;;;;;;;;6223035;28;20061;-84
2023/07/25 05:43:56;;;;;;;8.45;4.93;;;;;;;;;;6221870;28;20058;-82
2023/07/25 05:46:58;;;;;;;8.15;5.47;;;;;;;;;;6222470;28;20065;-82
2023/07/25 05:50:00;;;;;;;8.88;5.72;;;;;;;;;;6222105;28;20053;-82
2023/07/25 05:53:01;;;;;;;8.20;5.40;;;;;;;;;;6222250;28;20064;-78
2023/07/25 05:56:04;;;;;;;9.85;5.95;;;;;;;;;;6225677;28;20285;-79
2023/07/25 05:59:06;;;;;;;8.77;5.68;;;;;;;;;;6223626;28;20272;-78
2023/07/25 06:02:08;;;;;;;7.28;5.68;;;;;;;;;;6225702;28;20060;-81
2023/07/25 06:05:09;;;;;;;10.57;6.05;;;;;;;;;;6222509;28;20061;-81
2023/07/25 06:08:11;;;;;;;10.25;5.80;;;;;;;;;;6223629;28;20341;-78
2023/07/25 06:11:15;;;;;;;10.23;6.65;;;;;;;;;;6220468;28;20080;-78
2023/07/25 06:14:17;;;;;;;8.63;5.60;;;;;;;;;;6221257;28;20050;-79
2023/07/25 06:17:18;;;;;;;10.82;6.88;;;;;;;;;;6223887;28;20058;-78
2023/07/25 06:20:19;;;;;;;10.30;6.28;;;;;;;;;;6221769;28;20333;-78
2023/07/25 06:23:21;;;;;;;14.70;7.40;;;;;;;;;;6222729;28;20061;-78
2023/07/25 06:26:24;;;;;;;12.57;6.05;;;;;;;;;;6220795;28;20549;-79
2023/07/25 06:29:26;;;;;;;13.18;6.75;;;;;;;;;;6224830;28;20054;-78
2023/07/25 06:32:27;;;;;;;9.80;5.75;;;;;;;;;;6221259;28;20064;-78
2023/07/25 06:35:29;;;;;;;10.25;6.18;;;;;;;;;;6222872;28;20076;-84
2023/07/25 06:38:30;;;;;;;7.22;5.22;;;;;;;;;;6220562;28;20348;-77
2023/07/25 06:41:33;;;;;;;8.48;5.50;;;;;;;;;;6220843;28;20063;-78
2023/07/25 06:44:34;;;;;;;8.05;4.93;;;;;;;;;;6222980;28;20080;-78
2023/07/25 06:47:36;;;;;;;9.38;6.07;;;;;;;;;;6223453;28;20285;-83
2023/07/25 06:50:37;;;;;;;8.98;5.93;;;;;;;;;;6222100;28;20058;-78
2023/07/25 06:53:39;;;;;;;9.65;5.07;;;;;;;;;;6223025;28;20042;-80
2023/07/25 06:56:41;;;;;;;8.02;5.35;;;;;;;;;;6220090;28;20057;-80
2023/07/25 06:59:43;;;;;;;8.27;5.40;;;;;;;;;;6221587;28;20064;-79
2023/07/25 07:02:44;;;;;;;8.27;4.95;;;;;;;;;;6220609;28;20050;-79
2023/07/25 07:05:52;;;;;;;6.80;4.20;;;;;;;;;;6222173;28;20116;-79
2023/07/25 07:08:53;;;;;;;7.63;3.95;;;;;;;;;;6221110;28;20068;-78
2023/07/25 07:11:56;;;;;;;6.68;3.88;;;;;;;;;;6220002;28;20121;-78
2023/07/25 07:14:58;;;;;;;4.93;3.95;;;;;;;;;;6220665;28;20062;-78
2023/07/25 07:17:59;;;;;;;5.45;3.15;;;;;;;;;;6220563;28;20361;-75
2023/07/25 07:21:01;;;;;;;7.68;3.08;;;;;;;;;;6220494;28;20053;-77
2023/07/25 07:24:02;;;;;;;5.20;3.25;;;;;;;;;;6218226;28;20062;-77
2023/07/25 07:27:05;;;;;;;5.30;3.08;;;;;;;;;;6219791;28;20056;-76
2023/07/25 07:30:07;;;;;;;5.88;3.17;;;;;;;;;;6219339;28;20100;-76
2023/07/25 07:33:09;;;;;;;7.20;2.97;;;;;;;;;;6219124;28;20045;-77
2023/07/25 07:36:10;;;;;;;5.22;3.63;;;;;;;;;;6223788;28;20056;-79
2023/07/25 07:39:12;;;;;;;6.10;3.63;;;;;;;;;;6244942;28;20091;-80
2023/07/25 07:42:14;;;;;;;8.20;3.15;;;;;;;;;;6244305;28;20101;-77
2023/07/25 07:45:16;;;;;;;5.55;3.35;;;;;;;;;;6244311;28;20253;-79
2023/07/25 07:48:17;;;;;;;6.07;3.63;;;;;;;;;;6244474;28;20058;-77
2023/07/25 07:51:19;;;;;;;6.85;3.85;;;;;;;;;;6241933;28;20354;-79
2023/07/25 07:54:20;;;;;;;5.57;3.28;;;;;;;;;;6243761;28;20166;-77
2023/07/25 07:57:23;;;;;;;6.70;3.65;;;;;;;;;;6245219;28;20106;-78
2023/07/25 08:00:25;;;;;;;6.47;3.97;;;;;;;;;;6245010;28;20061;-81
2023/07/25 08:03:26;;;;;;;7.68;3.85;;;;;;;;;;6245122;28;20057;-79
2023/07/25 08:06:28;;;;;;;5.18;3.75;;;;;;;;;;6244694;28;20336;-80
2023/07/25 08:09:30;;;;;;;5.18;3.75;;;;;;;;;;6247252;28;20181;-80
2023/07/25 08:12:33;;;;;;;6.70;4.35;;;;;;;;;;6243114;28;20065;-80
2023/07/25 08:15:34;;;;;;;6.10;3.38;;;;;;;;;;6244440;28;20052;-80
2023/07/25 08:18:36;;;;;;;10.35;4.35;;;;;;;;;;6245285;28;20092;-80
2023/07/25 08:21:38;;;;;;;7.18;3.95;;;;;;;;;;6244149;28;20061;-80
2023/07/25 08:24:39;;;;;;;5.93;3.72;;;;;;;;;;6241628;28;20049;-80
2023/07/25 08:27:42;;;;;;;6.80;3.42;;;;;;;;;;6244835;28;20085;-81
2023/07/25 08:30:43;;;;;;;9.20;3.85;;;;;;;;;;6244487;28;20103;-81
2023/07/25 08:33:45;;;;;;;7.50;4.45;;;;;;;;;;6244506;28;20088;-80
2023/07/25 08:36:46;;;;;;;4.88;3.88;;;;;;;;;;6242625;28;20325;-80
2023/07/25 08:39:48;;;;;;;7.05;3.75;;;;;;;;;;6241085;28;20060;-80
2023/07/25 08:42:51;;;;;;;9.88;3.83;;;;;;;;;;6243196;28;20046;-80
2023/07/25 08:45:52;;;;;;;;;;;;;;;;;;6246250;28;20241;-80
2023/07/25 08:48:56;;;;;;;6.05;3.60;;;;;;;;;;6242099;28;20031;-80
2023/07/25 08:51:59;;;;;;;5.80;3.83;;;;;;;;;;6243554;28;20064;-80
2023/07/25 08:55:01;;;;;;;6.10;3.83;;;;;;;;;;6243967;28;20408;-80
2023/07/25 08:58:04;;;;;;;6.35;4.18;;;;;;;;;;6243143;28;20249;-83
2023/07/25 09:01:07;;;;;;;7.50;4.30;;;;;;;;;;6241855;28;20053;-81
2023/07/25 09:04:09;;;;;;;7.85;4.70;;;;;;;;;;6242430;28;20057;-81
2023/07/25 09:07:11;;;;;;;8.68;4.53;;;;;;;;;;6244097;28;20046;-83
2023/07/25 09:10:12;;;;;;;7.05;3.95;;;;;;;;;;6244330;28;20195;-82
2023/07/25 09:13:15;;;;;;;8.73;4.88;;;;;;;;;;6241239;28;20364;-84
2023/07/25 09:16:16;;;;;;;92.30;66.82;;;;;;;;;;6243265;28;20038;-82
2023/07/25 09:19:18;;;;;;;30.88;20.63;;;;;;;;;;6244176;28;20103;-81
2023/07/25 09:22:26;;;;;;;41.08;28.58;;;;;;;;;;6245625;28;20054;-81
2023/07/25 09:25:28;;;;;;;5.95;4.47;;;;;;;;;;6241063;28;20061;-81
2023/07/25 09:28:30;;;;;;;6.20;4.20;;;;;;;;;;6244306;28;20289;-76
2023/07/25 09:31:42;;;;;;;5.28;3.55;;;;;;;;;;6241961;28;20050;-80
2023/07/25 09:34:44;;;;;;;5.93;3.92;;;;;;;;;;6244025;28;20046;-78
2023/07/25 09:37:51;;;;;;;7.10;4.10;;;;;;;;;;6244684;28;20057;-79
2023/07/25 09:40:53;;;;;;;5.22;3.75;;;;;;;;;;6242173;28;20407;-76
2023/07/25 09:44:00;;;;;;;5.72;3.78;;;;;;;;;;6242704;28;20072;-78
2023/07/25 09:47:02;;;;;;;8.55;4.53;;;;;;;;;;6243373;28;20049;-78
2023/07/25 09:50:04;;;;;;;6.10;4.10;;;;;;;;;;6242447;28;20050;-77
2023/07/25 09:53:09;;;;;;;9.50;4.13;;;;;;;;;;6242899;28;20041;-80
2023/07/25 09:56:11;;;;;;;6.00;4.05;;;;;;;;;;6242937;28;20056;-78
2023/07/25 09:59:14;;;;;;;7.13;3.60;;;;;;;;;;6243505;28;20095;-80
2023/07/25 10:02:16;;;;;;;5.63;3.90;;;;;;;;;;6245475;28;20053;-78
2023/07/25 10:05:18;;;;;;;6.20;3.63;;;;;;;;;;6243718;28;20111;-81
2023/07/25 10:08:19;;;;;;;9.38;4.47;;;;;;;;;;6246582;28;20060;-79
2023/07/25 10:11:22;;;;;;;4.95;3.50;;;;;;;;;;6245929;28;20045;-79
2023/07/25 10:14:23;;;;;;;;;;;;;;;;;;6247666;28;20057;-78
2023/07/25 10:17:26;;;;;;;12.63;8.98;;;;;;;;;;6248568;28;19923;-76
2023/07/25 10:20:28;;;;;;;5.95;3.70;;;;;;;;;;6250004;28;20300;-77
2023/07/25 10:23:30;;;;;;;6.00;3.85;;;;;;;;;;6247693;28;20084;-78
2023/07/25 10:26:31;;;;;;;;;;;;;;;;;;6245422;28;20376;-78
2023/07/25 10:29:41;;;;;;;5.72;3.75;;;;;;;;;;6248896;28;19925;-78
2023/07/25 10:32:45;;;;;;;7.88;4.50;;;;;;;;;;6248588;28;20045;-78
2023/07/25 10:35:49;;;;;;;6.82;4.20;;;;;;;;;;6246478;28;20289;-78
2023/07/25 10:38:52;;;;;;;5.63;3.95;;;;;;;;;;6243895;28;20058;-79
2023/07/25 10:41:54;;;;;;;4.82;3.53;;;;;;;;;;6247300;28;20057;-79
2023/07/25 10:44:57;;;;;;;5.97;3.75;;;;;;;;;;6247129;28;20061;-78
2023/07/25 10:48:00;;;;;;;7.97;4.30;;;;;;;;;;6247856;28;20271;-78
2023/07/25 10:51:02;;;;;;;5.38;3.60;;;;;;;;;;6242317;28;20049;-79
2023/07/25 10:54:10;;;;;;;6.43;4.28;;;;;;;;;;6242569;28;20345;-80
2023/07/25 10:57:13;;;;;;;6.95;3.90;;;;;;;;;;6252545;28;20117;-80
2023/07/25 11:00:14;;;;;;;6.28;3.70;;;;;;;;;;6246973;28;20151;-80
2023/07/25 11:03:28;;;;;;;6.80;4.18;;;;;;;;;;6247923;28;20264;-79
2023/07/25 11:06:40;;;;;;;5.13;3.97;;;;;;;;;;6248014;28;20045;-79
2023/07/25 11:09:42;;;;;;;6.13;3.80;;;;;;;;;;6246619;28;20329;-79
2023/07/25 11:12:44;;;;;;;5.32;3.78;;;;;;;;;;6248142;28;20100;-78
2023/07/25 11:15:45;;;;;;;6.35;4.60;;;;;;;;;;6246790;28;20053;-81
2023/07/25 11:18:50;;;;;;;7.85;4.28;;;;;;;;;;6243908;28;20045;-79
2023/07/25 11:21:52;;;;;;;5.43;3.22;;;;;;;;;;6247165;28;20061;-79
2023/07/25 11:24:55;;;;;;;13.80;5.82;;;;;;;;;;6244650;28;20057;-78
2023/07/25 11:27:56;;;;;;;5.43;3.70;;;;;;;;;;6245801;28;20099;-78
2023/07/25 11:30:58;;;;;;;8.93;4.10;;;;;;;;;;6245651;28;20427;-78
2023/07/25 11:34:09;;;;;;;8.10;5.05;;;;;;;;;;6247128;28;20096;-80
2023/07/25 11:37:11;;;;;;;5.20;3.65;;;;;;;;;;6245577;28;20056;-79
2023/07/25 11:40:14;;;;;;;6.03;3.72;;;;;;;;;;6245271;28;20058;-81
2023/07/25 11:43:15;;;;;;;6.88;4.22;;;;;;;;;;6242895;28;20045;-81
2023/07/25 11:46:17;;;;;;;;;;;;;;;;;;6244382;28;20344;-80
2023/07/25 11:49:21;;;;;;;5.85;4.05;;;;;;;;;;6242182;28;19917;-81
2023/07/25 11:52:22;;;;;;;6.93;4.03;;;;;;;;;;6247232;28;20057;-80
2023/07/25 11:55:25;;;;;;;5.75;3.92;;;;;;;;;;6245650;28;20325;-80
2023/07/25 11:58:27;;;;;;;4.57;3.60;;;;;;;;;;6245091;28;20123;-77
2023/07/25 12:01:29;;;;;;;7.95;4.82;;;;;;;;;;6244702;28;20108;-79
2023/07/25 12:04:32;;;;;;;8.98;4.85;;;;;;;;;;6243009;28;20096;-79
2023/07/25 12:07:49;;;;;;;5.85;3.95;;;;;;;;;;6244819;28;20038;-80
2023/07/25 12:10:50;;;;;;;6.35;3.78;;;;;;;;;;6244319;28;20120;-80
2023/07/25 12:13:52;;;;;;;5.40;3.83;;;;;;;;;;6242477;28;20293;-77
2023/07/25 12:16:54;;;;;;;5.20;3.80;;;;;;;;;;6241951;28;20054;-77
2023/07/25 12:19:57;;;;;;;8.10;4.70;;;;;;;;;;6241478;28;20065;-78
2023/07/25 12:23:05;;;;;;;5.55;3.90;;;;;;;;;;6246379;28;20049;-80
2023/07/25 12:26:08;;;;;;;5.88;3.80;;;;;;;;;;6244129;28;20116;-79
2023/07/25 12:29:12;;;;;;;5.47;4.22;;;;;;;;;;6244378;28;20061;-79
2023/07/25 12:32:14;;;;;;;6.13;3.75;;;;;;;;;;6243192;28;20061;-79
2023/07/25 12:35:17;;;;;;;6.22;3.90;;;;;;;;;;6247718;28;20055;-77
2023/07/25 12:38:18;;;;;;;5.20;3.83;;;;;;;;;;6240659;28;20088;-77
2023/07/25 12:41:21;;;;;;;7.32;4.97;;;;;;;;;;6243676;28;20053;-79
2023/07/25 12:44:23;;;;;;;7.95;4.32;;;;;;;;;;6243363;28;20687;-79
2023/07/25 12:47:24;;;;;;;5.85;4.40;;;;;;;;;;6243826;28;20065;-78
2023/07/25 12:50:28;;;;;;;7.55;5.22;;;;;;;;;;6242971;28;20644;-78
2023/07/25 12:53:30;;;;;;;6.68;5.15;;;;;;;;;;6243461;28;20119;-78
2023/07/25 12:56:31;;;;;;;7.63;4.53;;;;;;;;;;6243231;28;20060;-79
2023/07/25 12:59:33;;;;;;;7.73;4.73;;;;;;;;;;6243236;28;20118;-77
2023/07/25 13:02:34;;;;;;;8.80;5.07;;;;;;;;;;6243895;28;20049;-77
2023/07/25 13:05:37;;;;;;;7.75;4.38;;;;;;;;;;6243353;28;20364;-78
2023/07/25 13:08:39;;;;;;;8.20;4.10;;;;;;;;;;6243354;28;20057;-78
2023/07/25 13:11:40;;;;;;;6.05;3.88;;;;;;;;;;6246475;28;20049;-78
2023/07/25 13:14:42;;;;;;;6.78;4.05;;;;;;;;;;6243890;28;20049;-78
2023/07/25 13:17:43;;;;;;;6.72;4.68;;;;;;;;;;6243033;28;20058;-79
2023/07/25 13:20:46;;;;;;;5.47;4.30;;;;;;;;;;6241941;28;20226;-78
2023/07/25 13:23:48;;;;;;;9.45;5.00;;;;;;;;;;6242142;28;20402;-79
2023/07/25 13:26:49;;;;;;;7.10;4.68;;;;;;;;;;6244437;28;20069;-78
2023/07/25 13:29:51;;;;;;;5.60;4.10;;;;;;;;;;6241956;28;20061;-78
2023/07/25 13:32:52;;;;;;;5.75;4.13;;;;;;;;;;6242603;28;20050;-78
2023/07/25 13:35:55;;;;;;;8.18;4.50;;;;;;;;;;6241835;28;20053;-79
2023/07/25 13:38:56;;;;;;;8.75;4.97;;;;;;;;;;6240370;28;20091;-77
2023/07/25 13:41:58;;;;;;;7.30;4.35;;;;;;;;;;6245153;28;20052;-77
2023/07/25 13:44:59;;;;;;;8.30;4.47;;;;;;;;;;6246987;28;20037;-77
2023/07/25 13:48:01;;;;;;;9.23;4.70;;;;;;;;;;6248817;28;20053;-77
2023/07/25 13:51:04;;;;;;;8.30;4.60;;;;;;;;;;6246121;28;20050;-76
2023/07/25 13:54:05;;;;;;;5.78;4.03;;;;;;;;;;6245529;28;20256;-77
2023/07/25 13:57:07;;;;;;;6.25;4.35;;;;;;;;;;6245421;28;20057;-79
2023/07/25 14:00:09;;;;;;;11.52;4.93;;;;;;;;;;6245662;28;20051;-80
2023/07/25 14:03:10;;;;;;;8.45;4.53;;;;;;;;;;6248822;28;20359;-81
2023/07/25 14:06:13;;;;;;;8.07;4.25;;;;;;;;;;6247843;28;20057;-80
2023/07/25 14:09:15;;;;;;;;;;;;;;;;;;6244640;28;20049;-79
2023/07/25 14:12:16;;;;;;;6.72;4.57;;;;;;;;;;6246148;28;20138;-81
2023/07/25 14:15:18;;;;;;;5.63;4.18;;;;;;;;;;6250195;28;20053;-78
2023/07/25 14:18:19;;;;;;;6.57;4.85;;;;;;;;;;6244428;28;20069;-79
2023/07/25 14:21:22;;;;;;;7.93;5.13;;;;;;;;;;6246723;28;20577;-78
2023/07/25 14:24:23;;;;;;;7.25;3.92;;;;;;;;;;6243494;28;20054;-78
2023/07/25 14:27:25;;;;;;;7.75;4.25;;;;;;;;;;6245016;28;20057;-78
2023/07/25 14:30:26;;;;;;;8.27;4.20;;;;;;;;;;6244930;28;20057;-78
2023/07/25 14:33:28;;;;;;;5.68;4.40;;;;;;;;;;6246837;28;20069;-79
2023/07/25 14:36:31;;;;;;;10.00;4.57;;;;;;;;;;6245399;28;20233;-76
2023/07/25 14:39:32;;;;;;;;;;;;;;;;;;6245490;28;20057;-78
2023/07/25 14:42:34;;;;;;;6.25;4.03;;;;;;;;;;6248264;28;19925;-77
2023/07/25 14:45:36;;;;;;;5.88;4.53;;;;;;;;;;6228358;28;20751;-77
2023/07/25 14:48:37;;;;;;;7.45;4.13;;;;;;;;;;6246139;28;20252;-80
2023/07/25 14:51:40;;;;;;;9.93;4.13;;;;;;;;;;6244783;28;20128;-79
2023/07/25 14:54:41;;;;;;;;;;;;;;;;;;6247025;28;20053;-79
2023/07/25 14:57:43;;;;;;;5.35;4.07;;;;;;;;;;6245658;28;19917;-79
2023/07/25 15:00:44;;;;;;;7.38;4.10;;;;;;;;;;6245228;28;20064;-77
2023/07/25 15:03:46;;;;;;;5.45;3.58;;;;;;;;;;6248389;28;20086;-77
2023/07/25 15:06:49;;;;;;;8.60;4.28;;;;;;;;;;6243139;28;20057;-79
2023/07/25 15:09:51;;;;;;;6.22;4.18;;;;;;;;;;6244940;28;20112;-79
2023/07/25 15:12:53;;;;;;;7.13;4.53;;;;;;;;;;6242467;28;20062;-81
2023/07/25 15:15:55;;;;;;;5.78;4.30;;;;;;;;;;6244252;28;20111;-77
2023/07/25 15:18:56;;;;;;;7.07;4.25;;;;;;;;;;6244849;28;20112;-80
2023/07/25 15:21:59;;;;;;;27.27;14.85;;;;;;;;;;6251923;28;20057;-79
2023/07/25 15:25:00;;;;;;;;;;;;;;;;;;6243919;28;20076;-77
2023/07/25 15:28:02;;;;;;;9.93;6.47;;;;;;;;;;6248329;28;20139;-77
2023/07/25 15:31:03;;;;;;;80.15;52.22;;;;;;;;;;6247004;28;20064;-79
2023/07/25 15:34:05;;;;;;;36.70;25.58;;;;;;;;;;6245957;28;20080;-78
2023/07/25 15:37:08;;;;;;;6.65;3.78;;;;;;;;;;6244947;28;20321;-76
2023/07/25 15:40:09;;;;;;;7.38;4.35;;;;;;;;;;6247341;28;20399;-76
2023/07/25 15:43:11;;;;;;;5.35;3.78;;;;;;;;;;6249047;28;20056;-76
2023/07/25 15:46:12;;;;;;;7.30;4.13;;;;;;;;;;6242848;28;20076;-75
2023/07/25 15:49:14;;;;;;;8.27;4.22;;;;;;;;;;6244692;28;21979;-75
2023/07/25 15:52:17;;;;;;;6.10;3.57;;;;;;;;;;6243928;28;20049;-75
2023/07/25 15:55:19;;;;;;;6.82;4.32;;;;;;;;;;6241351;28;20088;-75
2023/07/25 15:58:21;;;;;;;5.43;3.38;;;;;;;;;;6245203;28;20057;-75
2023/07/25 16:01:22;;;;;;;7.07;3.50;;;;;;;;;;6245662;28;20072;-75
2023/07/25 16:04:23;;;;;;;5.53;3.38;;;;;;;;;;6242822;28;20329;-75
2023/07/25 16:07:26;;;;;;;7.93;3.83;;;;;;;;;;6241839;28;20364;-75
2023/07/25 16:10:28;;;;;;;4.57;3.17;;;;;;;;;;6245128;28;20050;-76
2023/07/25 16:13:29;;;;;;;6.35;3.40;;;;;;;;;;6243312;28;20064;-76
2023/07/25 16:16:31;;;;;;;6.75;3.28;;;;;;;;;;6244532;28;20064;-76
2023/07/25 16:19:33;;;;;;;6.27;3.43;;;;;;;;;;6244113;28;20077;-76
2023/07/25 16:22:35;;;;;;;5.78;3.47;;;;;;;;;;6242241;28;20121;-77
2023/07/25 16:25:37;;;;;;;6.78;3.35;;;;;;;;;;6241005;28;20065;-77
2023/07/25 16:28:39;;;;;;;7.68;4.07;;;;;;;;;;6244284;28;20053;-77
2023/07/25 16:31:40;;;;;;;5.78;3.25;;;;;;;;;;6244583;28;20112;-77
2023/07/25 16:34:42;;;;;;;5.68;3.30;;;;;;;;;;6239091;28;20057;-76
2023/07/25 16:37:45;;;;;;;6.97;3.40;;;;;;;;;;6245380;28;20049;-75
2023/07/25 16:40:46;;;;;;;6.28;2.97;;;;;;;;;;6242065;28;20050;-75
2023/07/25 16:43:48;;;;;;;7.53;3.75;;;;;;;;;;6242462;28;20128;-76
2023/07/25 16:46:49;;;;;;;4.53;3.25;;;;;;;;;;6242093;28;20056;-74
2023/07/25 16:49:51;;;;;;;6.75;3.63;;;;;;;;;;6245211;28;20061;-75
2023/07/25 16:52:53;;;;;;;4.57;3.50;;;;;;;;;;6244644;28;20053;-75
2023/07/25 16:55:55;;;;;;;5.53;3.33;;;;;;;;;;6245065;28;20057;-76
2023/07/25 16:58:56;;;;;;;5.75;3.47;;;;;;;;;;6241840;28;20058;-78
2023/07/25 17:01:58;;;;;;;4.78;2.83;;;;;;;;;;6242477;28;20057;-76
2023/07/25 17:05:03;;;;;;;3.67;2.90;;;;;;;;;;6241829;28;20088;-76
2023/07/25 17:08:06;;;;;;;5.63;3.20;;;;;;;;;;6242935;28;20112;-76
2023/07/25 17:11:08;;;;;;;;;;;;;;;;;;6242926;28;20060;-77
2023/07/25 17:14:09;;;;;;;4.57;3.17;;;;;;;;;;6245367;28;19925;-76
2023/07/25 17:17:11;;;;;;;4.60;3.50;;;;;;;;;;6242573;28;20049;-77
2023/07/25 17:20:14;;;;;;;4.57;3.05;;;;;;;;;;6247372;28;20116;-76
2023/07/25 17:23:15;;;;;;;;;;;;;;;;;;6245044;28;20348;-77
2023/07/25 17:26:18;;;;;;;5.82;3.28;;;;;;;;;;6244783;28;20535;-75
2023/07/25 17:29:19;;;;;;;6.00;3.50;;;;;;;;;;6245203;28;20057;-75
2023/07/25 17:32:21;;;;;;;28.38;5.97;;;;;;;;;;6245319;28;20033;-76
2023/07/25 17:35:23;;;;;;;8.15;3.42;;;;;;;;;;6249781;28;20107;-76
2023/07/25 17:38:24;;;;;;;9.35;3.90;;;;;;;;;;6246174;28;20053;-77
2023/07/25 17:41:28;;;;;;;5.95;3.65;;;;;;;;;;6247743;28;20049;-77
2023/07/25 17:44:32;;;;;;;8.35;3.63;;;;;;;;;;6242864;28;20049;-75
2023/07/25 17:47:33;;;;;;;4.82;3.70;;;;;;;;;;6246235;28;20232;-75
2023/07/25 17:50:35;;;;;;;3.92;2.88;;;;;;;;;;6246303;28;20061;-74
2023/07/25 17:53:36;;;;;;;4.93;3.33;;;;;;;;;;6246125;28;20058;-75
2023/07/25 17:56:39;;;;;;;5.78;3.30;;;;;;;;;;6247000;28;20060;-75
2023/07/25 17:59:41;;;;;;;5.32;3.13;;;;;;;;;;6247425;28;20243;-76
2023/07/25 18:02:42;;;;;;;6.28;3.55;;;;;;;;;;6243949;28;20794;-75
2023/07/25 18:05:45;;;;;;;6.93;3.58;;;;;;;;;;6245652;28;20053;-75
2023/07/25 18:08:46;;;;;;;4.40;3.30;;;;;;;;;;6248017;28;20071;-77
2023/07/25 18:11:49;;;;;;;5.97;3.42;;;;;;;;;;6245242;28;20152;-76
2023/07/25 18:14:51;;;;;;;4.95;3.20;;;;;;;;;;6246654;28;20213;-76
2023/07/25 18:17:53;;;;;;;7.63;3.35;;;;;;;;;;6248180;28;20332;-76
2023/07/25 18:20:54;;;;;;;6.45;3.15;;;;;;;;;;6246470;28;20329;-73
2023/07/25 18:23:56;;;;;;;4.95;2.90;;;;;;;;;;6245871;28;20462;-73
2023/07/25 18:26:59;;;;;;;5.05;3.53;;;;;;;;;;6247019;28;20326;-77
2023/07/25 18:30:00;;;;;;;5.80;3.33;;;;;;;;;;6246384;28;20349;-76
2023/07/25 18:33:01;;;;;;;6.93;3.17;;;;;;;;;;6244744;28;20046;-74
2023/07/25 18:36:03;;;;;;;5.07;3.30;;;;;;;;;;6246549;28;20057;-74